Time;durP1;ratioP1;P1;durP2;ratioP2;P2;SDS_P1;SDS_P2;PMS_P1;PMS_P2;Temp;Humidity;BMP_temperature;BMP_pressure;BME280_temperature;BME280_humidity;BME280_pressure;Samples;Min_cycle;Max_cycle;Signal;HPM_P1;HPM_P2
2024/02/11 00:01:36;;;;;;;8.73;5.32;;;8.30;99.90;;;;;;5033143;28;20095;-77
2024/02/11 00:04:02;;;;;;;9.23;4.97;;;8.30;99.90;;;;;;5034558;28;20033;-78
2024/02/11 00:06:28;;;;;;;8.90;5.50;;;8.40;99.90;;;;;;5035308;28;20479;-76
2024/02/11 00:08:54;;;;;;;7.35;5.13;;;8.40;99.90;;;;;;5034168;28;20058;-77
2024/02/11 00:11:21;;;;;;;8.85;5.90;;;8.40;99.90;;;;;;5035694;28;21041;-77
2024/02/11 00:13:46;;;;;;;9.80;5.60;;;8.40;99.90;;;;;;5035753;28;20119;-80
2024/02/11 00:16:13;;;;;;;7.85;4.65;;;8.50;99.90;;;;;;5034706;28;20045;-79
2024/02/11 00:18:41;;;;;;;8.88;5.90;;;8.40;99.90;;;;;;5039045;28;20021;-79
2024/02/11 00:21:07;;;;;;;12.05;5.75;;;8.30;99.90;;;;;;5039036;28;20028;-79
2024/02/11 00:23:36;;;;;;;11.02;6.45;;;8.30;99.90;;;;;;5038321;28;20044;-79
2024/02/11 00:26:03;;;;;;;8.77;6.15;;;8.30;99.90;;;;;;5039582;28;20040;-79
2024/02/11 00:28:29;;;;;;;10.25;5.97;;;8.40;99.90;;;;;;5038302;28;20032;-79
2024/02/11 00:30:55;;;;;;;8.50;5.55;;;8.40;99.90;;;;;;5039121;28;20090;-79
2024/02/11 00:33:20;;;;;;;10.38;7.38;;;8.30;99.90;;;;;;5038557;28;20036;-79
2024/02/11 00:35:47;;;;;;;11.30;7.00;;;8.30;99.90;;;;;;5038190;28;20060;-79
2024/02/11 00:38:14;;;;;;;11.63;7.32;;;8.30;99.90;;;;;;5037971;28;20040;-79
2024/02/11 00:40:39;;;;;;;9.15;6.22;;;8.40;99.90;;;;;;5038760;28;20098;-79
2024/02/11 00:43:07;;;;;;;9.07;6.82;;;8.30;99.90;;;;;;5037929;28;20045;-79
2024/02/11 00:45:33;;;;;;;10.25;6.32;;;8.30;99.90;;;;;;5038391;28;20043;-79
2024/02/11 00:48:03;;;;;;;9.50;6.20;;;8.30;99.90;;;;;;5039290;28;20119;-79
2024/02/11 00:50:31;;;;;;;10.63;6.80;;;8.30;99.90;;;;;;5037668;28;20037;-79
2024/02/11 00:52:57;;;;;;;13.30;7.22;;;8.30;99.90;;;;;;5036195;28;20017;-79
2024/02/11 00:55:22;;;;;;;9.55;6.68;;;8.30;99.90;;;;;;5038640;28;20088;-79
2024/02/11 00:57:49;;;;;;;9.95;6.70;;;8.30;99.90;;;;;;5038088;28;20139;-79
2024/02/11 01:00:16;;;;;;;9.75;6.32;;;8.20;99.90;;;;;;5037007;28;20786;-79
2024/02/11 01:02:42;;;;;;;8.35;5.95;;;8.30;99.90;;;;;;5037899;28;20033;-79
2024/02/11 01:05:08;;;;;;;9.75;5.90;;;8.30;99.90;;;;;;5036130;28;20070;-79
2024/02/11 01:07:38;;;;;;;10.38;6.70;;;8.20;99.90;;;;;;5037493;28;20120;-79
2024/02/11 01:10:10;;;;;;;8.75;4.57;;;8.20;99.90;;;;;;5037798;28;20043;-79
2024/02/11 01:12:39;;;;;;;6.97;4.85;;;8.20;99.90;;;;;;5038759;28;20028;-79
2024/02/11 01:15:06;;;;;;;8.00;4.22;;;8.20;99.90;;;;;;5037614;28;20052;-79
2024/02/11 01:17:32;;;;;;;8.77;5.40;;;8.20;99.90;;;;;;5037697;28;20028;-79
2024/02/11 01:19:57;;;;;;;16.27;10.95;;;8.30;99.90;;;;;;5038897;28;20489;-79
2024/02/11 01:22:23;;;;;;;11.50;7.93;;;8.30;99.90;;;;;;5037701;28;20399;-79
2024/02/11 01:24:49;;;;;;;8.70;5.85;;;8.30;99.90;;;;;;5036966;28;20044;-79
2024/02/11 01:27:14;;;;;;;8.38;6.03;;;8.30;99.90;;;;;;5037047;28;20037;-79
2024/02/11 01:29:41;;;;;;;7.30;5.40;;;8.30;99.90;;;;;;5037329;28;20067;-79
2024/02/11 01:32:09;;;;;;;8.27;5.00;;;8.40;99.90;;;;;;5038721;28;20036;-79
2024/02/11 01:34:35;;;;;;;10.23;5.80;;;8.30;99.90;;;;;;5036364;28;20513;-79
2024/02/11 01:37:00;;;;;;;9.57;5.72;;;8.30;99.90;;;;;;5036696;28;20036;-79
2024/02/11 01:39:26;;;;;;;9.40;5.65;;;8.30;99.90;;;;;;5037199;28;20110;-79
2024/02/11 01:41:52;;;;;;;10.35;6.20;;;8.30;99.90;;;;;;5037986;28;20090;-79
2024/02/11 01:44:18;;;;;;;19.25;14.60;;;8.30;99.90;;;;;;5037047;28;20033;-79
2024/02/11 01:46:45;;;;;;;13.73;8.35;;;8.30;99.90;;;;;;5037770;28;20556;-80
2024/02/11 01:49:11;;;;;;;13.93;6.47;;;8.30;99.90;;;;;;5036959;28;20040;-79
2024/02/11 01:51:42;;;;;;;8.57;5.93;;;8.30;99.90;;;;;;5036747;28;20251;-79
2024/02/11 01:54:10;;;;;;;9.55;6.05;;;8.20;99.90;;;;;;5036692;28;20033;-79
2024/02/11 01:56:37;;;;;;;9.48;6.15;;;8.20;99.90;;;;;;5037854;28;20049;-79
2024/02/11 01:59:03;;;;;;;9.18;5.97;;;8.20;99.90;;;;;;5036414;28;20095;-79
2024/02/11 02:01:31;;;;;;;10.00;6.55;;;8.30;99.90;;;;;;5036436;28;20037;-79
2024/02/11 02:03:58;;;;;;;11.73;6.22;;;8.20;99.90;;;;;;5036358;28;20064;-79
2024/02/11 02:06:24;;;;;;;9.30;6.05;;;8.20;99.90;;;;;;5037232;28;20029;-78
2024/02/11 02:08:50;;;;;;;8.95;6.22;;;8.20;99.90;;;;;;5036130;28;20052;-79
2024/02/11 02:11:17;;;;;;;11.18;6.45;;;8.20;99.90;;;;;;5036454;28;20041;-79
2024/02/11 02:13:42;;;;;;;9.30;5.78;;;8.20;99.90;;;;;;5037290;28;20029;-79
2024/02/11 02:16:08;;;;;;;8.25;5.47;;;8.10;99.90;;;;;;5036120;28;20079;-79
2024/02/11 02:18:34;;;;;;;9.35;5.57;;;8.20;99.90;;;;;;5036287;28;20040;-79
2024/02/11 02:21:04;;;;;;;8.38;5.57;;;8.20;99.90;;;;;;5036365;28;20495;-79
2024/02/11 02:23:30;;;;;;;11.38;6.75;;;8.10;99.90;;;;;;5036647;28;20025;-79
2024/02/11 02:25:57;;;;;;;11.20;7.07;;;8.10;99.90;;;;;;5036086;28;20040;-79
2024/02/11 02:28:23;;;;;;;8.65;5.88;;;8.10;99.90;;;;;;5037268;28;20044;-79
2024/02/11 02:30:49;;;;;;;9.52;5.63;;;8.20;99.90;;;;;;5036348;28;20040;-79
2024/02/11 02:33:15;;;;;;;8.63;5.18;;;8.20;99.90;;;;;;5036545;28;20036;-79
2024/02/11 02:35:41;;;;;;;7.68;4.55;;;8.20;99.90;;;;;;5036395;28;20045;-79
2024/02/11 02:38:06;;;;;;;7.63;4.40;;;8.20;99.90;;;;;;5036236;28;20266;-79
2024/02/11 02:40:32;;;;;;;8.90;4.18;;;8.10;99.90;;;;;;5035476;28;20037;-79
2024/02/11 02:42:59;;;;;;;8.18;4.93;;;8.10;99.90;;;;;;5036878;28;20114;-79
2024/02/11 02:45:25;;;;;;;8.93;5.00;;;8.00;99.90;;;;;;5035524;28;20079;-79
2024/02/11 02:47:53;;;;;;;9.88;4.80;;;8.10;99.90;;;;;;5035842;28;20099;-79
2024/02/11 02:50:19;;;;;;;7.20;4.53;;;8.20;99.90;;;;;;5037435;28;20036;-79
2024/02/11 02:52:46;;;;;;;7.18;4.47;;;8.20;99.90;;;;;;5035832;28;20516;-79
2024/02/11 02:55:12;;;;;;;7.15;4.22;;;8.10;99.90;;;;;;5034934;28;20053;-79
2024/02/11 02:57:38;;;;;;;9.38;5.32;;;8.10;99.90;;;;;;5036414;28;20036;-79
2024/02/11 03:00:06;;;;;;;7.85;5.30;;;8.10;99.90;;;;;;5035999;28;20082;-78
2024/02/11 03:02:34;;;;;;;7.32;4.95;;;8.20;99.90;;;;;;5036307;28;20567;-78
2024/02/11 03:05:02;;;;;;;7.40;4.50;;;8.10;99.90;;;;;;5035688;28;20037;-78
2024/02/11 03:07:27;;;;;;;7.45;4.63;;;8.10;99.90;;;;;;5035923;28;20143;-78
2024/02/11 03:09:53;;;;;;;9.02;4.28;;;8.10;99.90;;;;;;5036013;28;20132;-77
2024/02/11 03:12:19;;;;;;;8.05;4.53;;;8.00;99.90;;;;;;5036158;28;20037;-78
2024/02/11 03:14:44;;;;;;;6.82;4.22;;;8.00;99.90;;;;;;5036292;28;20136;-77
2024/02/11 03:17:11;;;;;;;6.47;4.00;;;8.00;99.90;;;;;;5037720;28;20033;-78
2024/02/11 03:19:36;;;;;;;7.95;4.60;;;8.00;99.90;;;;;;5039874;28;20086;-78
2024/02/11 03:22:02;;;;;;;9.15;4.07;;;8.00;99.90;;;;;;5040954;28;20033;-78
2024/02/11 03:24:28;;;;;;;6.25;3.78;;;8.00;99.90;;;;;;5038644;28;21410;-78
2024/02/11 03:26:54;;;;;;;6.00;3.35;;;8.00;99.90;;;;;;5039833;28;20049;-78
2024/02/11 03:29:20;;;;;;;6.72;3.90;;;7.90;99.90;;;;;;5040467;28;20040;-77
2024/02/11 03:31:46;;;;;;;7.50;3.13;;;8.00;99.90;;;;;;5039421;28;20383;-77
2024/02/11 03:34:11;;;;;;;5.15;2.95;;;8.00;99.90;;;;;;5040257;28;20076;-79
2024/02/11 03:36:39;;;;;;;6.47;4.00;;;7.90;99.90;;;;;;5040322;28;20179;-78
2024/02/11 03:39:12;;;;;;;7.00;4.25;;;8.00;99.90;;;;;;5039181;28;20076;-78
2024/02/11 03:41:37;;;;;;;8.55;4.00;;;8.00;99.90;;;;;;5039367;28;20067;-78
2024/02/11 03:44:04;;;;;;;6.90;3.40;;;8.00;99.90;;;;;;5040427;28;20033;-78
2024/02/11 03:46:30;;;;;;;6.32;3.63;;;8.00;99.90;;;;;;5039307;28;20071;-78
2024/02/11 03:48:58;;;;;;;5.53;3.22;;;8.00;99.90;;;;;;5039111;28;20041;-78
2024/02/11 03:51:24;;;;;;;5.72;2.90;;;8.10;99.90;;;;;;5040278;28;20045;-77
2024/02/11 03:53:53;;;;;;;4.30;2.47;;;8.10;99.90;;;;;;5038989;28;20048;-78
2024/02/11 03:56:22;;;;;;;5.28;3.42;;;8.00;99.90;;;;;;5038553;28;20048;-77
2024/02/11 03:58:49;;;;;;;5.47;2.83;;;8.10;99.90;;;;;;5038390;28;20029;-77
2024/02/11 04:01:16;;;;;;;7.93;3.45;;;8.00;99.90;;;;;;5037927;28;20056;-78
2024/02/11 04:03:42;;;;;;;8.52;4.45;;;8.00;99.90;;;;;;5036779;28;20382;-77
2024/02/11 04:06:09;;;;;;;6.25;3.97;;;8.00;99.90;;;;;;5034656;28;20798;-77
2024/02/11 04:08:35;;;;;;;8.32;4.32;;;8.00;99.90;;;;;;5035051;28;20041;-78
2024/02/11 04:11:01;;;;;;;7.85;4.45;;;8.00;99.90;;;;;;5034822;28;20374;-77
2024/02/11 04:13:27;;;;;;;6.85;4.00;;;8.00;99.90;;;;;;5034271;28;20041;-78
2024/02/11 04:15:56;;;;;;;7.13;3.95;;;8.00;99.90;;;;;;5034386;28;20368;-78
2024/02/11 04:18:25;;;;;;;8.40;4.28;;;8.00;99.90;;;;;;5032893;28;20076;-77
2024/02/11 04:20:54;;;;;;;6.80;4.10;;;8.00;99.90;;;;;;5031974;28;20029;-77
2024/02/11 04:23:20;;;;;;;7.03;4.55;;;7.90;99.90;;;;;;5032186;28;20120;-78
2024/02/11 04:25:46;;;;;;;7.25;4.55;;;7.90;99.90;;;;;;5033429;28;20102;-77
2024/02/11 04:28:12;;;;;;;8.45;4.55;;;7.90;99.90;;;;;;5031353;28;20039;-79
2024/02/11 04:30:41;;;;;;;6.57;3.33;;;7.90;99.90;;;;;;5033254;28;20045;-77
2024/02/11 04:33:07;;;;;;;6.90;3.72;;;7.90;99.90;;;;;;5035853;28;20029;-77
2024/02/11 04:35:35;;;;;;;5.82;3.55;;;7.90;99.90;;;;;;5034944;28;20071;-77
2024/02/11 04:38:07;;;;;;;7.50;3.83;;;7.90;99.90;;;;;;5034675;28;20609;-77
2024/02/11 04:40:34;;;;;;;6.13;3.47;;;7.90;99.90;;;;;;5034347;28;20032;-78
2024/02/11 04:43:00;;;;;;;7.25;3.40;;;7.90;99.90;;;;;;5035832;28;20029;-77
2024/02/11 04:45:27;;;;;;;6.82;3.17;;;7.90;99.90;;;;;;5033948;28;20142;-78
2024/02/11 04:47:58;;;;;;;5.50;2.90;;;7.80;99.90;;;;;;5034193;28;20659;-78
2024/02/11 04:50:26;;;;;;;5.88;3.38;;;7.90;99.90;;;;;;5034302;28;20642;-77
2024/02/11 04:52:56;;;;;;;5.65;2.75;;;7.90;99.90;;;;;;5033610;28;20040;-77
2024/02/11 04:55:29;;;;;;;4.90;2.58;;;8.00;99.90;;;;;;5033756;28;20045;-77
2024/02/11 04:57:58;;;;;;;3.70;2.10;;;7.90;99.90;;;;;;5033885;28;20124;-77
2024/02/11 05:00:25;;;;;;;5.38;2.80;;;8.00;99.90;;;;;;5031006;28;20033;-78
2024/02/11 05:02:55;;;;;;;6.60;2.17;;;7.90;99.90;;;;;;5030068;28;20616;-77
2024/02/11 05:05:27;;;;;;;4.30;1.60;;;7.90;99.90;;;;;;5031014;28;20029;-79
2024/02/11 05:07:53;;;;;;;3.55;2.10;;;7.80;99.90;;;;;;5031189;28;20128;-78
2024/02/11 05:10:21;;;;;;;5.10;2.05;;;7.80;99.90;;;;;;5031457;28;20029;-79
2024/02/11 05:12:47;;;;;;;6.55;2.13;;;7.80;99.90;;;;;;5030096;28;20049;-78
2024/02/11 05:15:14;;;;;;;3.58;1.70;;;7.80;99.90;;;;;;5031732;28;20040;-77
2024/02/11 05:17:41;;;;;;;2.88;1.58;;;7.90;99.90;;;;;;5032880;28;20525;-77
2024/02/11 05:20:13;;;;;;;5.38;1.90;;;7.90;99.90;;;;;;5033165;28;20037;-78
2024/02/11 05:22:43;;;;;;;4.53;2.30;;;7.90;99.90;;;;;;5048222;28;20714;-78
2024/02/11 05:25:09;;;;;;;5.10;2.65;;;8.00;99.90;;;;;;5034115;28;20565;-78
2024/02/11 05:27:37;;;;;;;5.18;3.17;;;7.90;99.90;;;;;;5035017;28;20086;-78
2024/02/11 05:30:05;;;;;;;5.70;3.05;;;7.80;99.90;;;;;;5032972;28;20033;-78
2024/02/11 05:32:30;;;;;;;4.95;2.88;;;7.80;99.90;;;;;;5033844;28;20055;-77
2024/02/11 05:34:58;;;;;;;8.95;3.03;;;7.90;99.90;;;;;;5032082;28;20052;-77
2024/02/11 05:37:24;;;;;;;5.57;2.88;;;7.90;99.90;;;;;;5030545;28;20044;-78
2024/02/11 05:39:50;;;;;;;4.20;2.30;;;7.90;99.90;;;;;;5031581;28;20379;-77
2024/02/11 05:42:17;;;;;;;7.45;2.58;;;8.00;99.90;;;;;;5034105;28;20037;-77
2024/02/11 05:44:43;;;;;;;3.75;1.83;;;8.00;99.90;;;;;;5033259;28;21418;-78
2024/02/11 05:47:09;;;;;;;5.03;2.03;;;8.00;99.90;;;;;;5033100;28;20427;-77
2024/02/11 05:49:35;;;;;;;5.43;2.92;;;8.00;99.90;;;;;;5034719;28;20035;-77
2024/02/11 05:52:00;;;;;;;7.88;4.30;;;7.90;99.90;;;;;;5032178;28;20041;-78
2024/02/11 05:54:28;;;;;;;9.95;5.47;;;7.90;99.90;;;;;;5032689;28;20139;-78
2024/02/11 05:56:53;;;;;;;15.27;7.65;;;8.00;99.90;;;;;;5031092;28;20029;-78
2024/02/11 05:59:19;;;;;;;11.45;7.65;;;8.00;99.90;;;;;;5030151;28;20040;-77
2024/02/11 06:01:45;;;;;;;11.27;7.68;;;7.90;99.90;;;;;;5029063;28;20083;-77
2024/02/11 06:04:10;;;;;;;12.40;7.95;;;7.90;99.90;;;;;;5031281;28;20037;-80
2024/02/11 06:06:36;;;;;;;13.48;9.07;;;7.80;99.90;;;;;;5030927;28;20029;-77
2024/02/11 06:09:04;;;;;;;16.77;9.18;;;7.80;99.90;;;;;;5031829;28;20037;-77
2024/02/11 06:11:30;;;;;;;13.73;8.50;;;7.80;99.90;;;;;;5029719;28;20558;-79
2024/02/11 06:13:56;;;;;;;12.80;8.93;;;7.80;99.90;;;;;;5031169;28;20037;-77
2024/02/11 06:16:21;;;;;;;12.93;8.43;;;7.90;99.90;;;;;;5029724;28;20672;-77
2024/02/11 06:18:47;;;;;;;13.27;7.78;;;7.90;99.90;;;;;;5030937;28;20058;-77
2024/02/11 06:21:12;;;;;;;11.82;7.55;;;7.80;99.90;;;;;;5028760;28;20033;-77
2024/02/11 06:23:41;;;;;;;13.23;8.73;;;7.80;99.90;;;;;;5030495;28;20040;-77
2024/02/11 06:26:06;;;;;;;13.85;8.70;;;7.80;99.90;;;;;;5026834;28;20029;-75
2024/02/11 06:28:34;;;;;;;13.85;8.68;;;7.90;99.90;;;;;;5030809;28;20471;-78
2024/02/11 06:31:00;;;;;;;14.35;8.93;;;8.00;99.90;;;;;;5034964;28;20031;-79
2024/02/11 06:33:26;;;;;;;11.82;7.88;;;7.90;99.90;;;;;;5031885;28;20032;-78
2024/02/11 06:35:52;;;;;;;12.27;7.63;;;8.00;99.90;;;;;;5027704;28;20043;-78
2024/02/11 06:38:17;;;;;;;13.25;9.38;;;7.90;99.90;;;;;;5028413;28;20068;-77
2024/02/11 06:40:43;;;;;;;11.80;7.88;;;7.80;99.90;;;;;;5029155;28;20033;-78
2024/02/11 06:43:11;;;;;;;12.23;8.40;;;7.80;99.90;;;;;;5028650;28;20033;-77
2024/02/11 06:45:40;;;;;;;13.43;8.70;;;7.80;99.90;;;;;;5028785;28;20665;-77
2024/02/11 06:48:10;;;;;;;11.57;7.70;;;7.90;99.90;;;;;;5029912;28;20033;-78
2024/02/11 06:50:35;;;;;;;13.70;7.60;;;8.00;99.90;;;;;;5028495;28;20020;-78
2024/02/11 06:53:01;;;;;;;11.18;7.25;;;8.00;99.90;;;;;;5026401;28;20035;-78
2024/02/11 06:55:27;;;;;;;12.50;7.32;;;8.10;99.90;;;;;;5029463;28;20059;-77
2024/02/11 06:57:52;;;;;;;12.00;6.53;;;8.10;99.90;;;;;;5028200;28;20041;-78
2024/02/11 07:00:18;;;;;;;11.48;6.55;;;8.10;99.90;;;;;;5028570;28;20120;-79
2024/02/11 07:02:47;;;;;;;10.93;6.68;;;8.10;99.90;;;;;;5027637;28;20036;-78
2024/02/11 07:05:15;;;;;;;14.07;7.25;;;8.20;99.90;;;;;;5027982;28;20895;-77
2024/02/11 07:07:42;;;;;;;12.57;7.13;;;8.20;99.90;;;;;;5028844;28;20033;-78
2024/02/11 07:10:09;;;;;;;11.93;6.85;;;8.20;99.90;;;;;;5028287;28;20383;-77
2024/02/11 07:12:35;;;;;;;12.15;7.18;;;8.10;99.90;;;;;;5026957;28;20738;-79
2024/02/11 07:15:04;;;;;;;9.70;6.40;;;8.10;99.90;;;;;;5030346;28;20045;-79
2024/02/11 07:17:30;;;;;;;12.52;7.82;;;8.20;99.90;;;;;;5027952;28;20037;-78
2024/02/11 07:19:56;;;;;;;10.98;6.85;;;8.20;99.90;;;;;;5028554;28;20090;-78
2024/02/11 07:22:21;;;;;;;10.45;6.15;;;8.20;99.90;;;;;;5028117;28;20037;-78
2024/02/11 07:24:47;;;;;;;11.77;6.97;;;8.20;99.90;;;;;;5027844;28;20051;-78
2024/02/11 07:27:14;;;;;;;13.18;7.57;;;8.30;99.90;;;;;;5028208;28;20025;-78
2024/02/11 07:29:43;;;;;;;11.35;7.00;;;8.30;99.90;;;;;;5029713;28;20481;-78
2024/02/11 07:32:10;;;;;;;11.52;6.88;;;8.30;99.90;;;;;;5028496;28;20094;-77
2024/02/11 07:34:37;;;;;;;10.57;6.80;;;8.30;99.90;;;;;;5026955;28;20033;-77
2024/02/11 07:37:03;;;;;;;12.57;8.18;;;8.30;99.90;;;;;;5029494;28;20142;-76
2024/02/11 07:39:29;;;;;;;14.80;9.95;;;8.20;99.90;;;;;;5029073;28;20045;-76
2024/02/11 07:41:55;;;;;;;13.32;7.88;;;8.20;99.90;;;;;;5027935;28;20043;-77
2024/02/11 07:44:21;;;;;;;13.45;8.43;;;8.30;99.90;;;;;;5029311;28;20417;-76
2024/02/11 07:46:47;;;;;;;14.55;9.30;;;8.40;99.90;;;;;;5032795;28;20036;-76
2024/02/11 07:49:13;;;;;;;17.00;10.90;;;8.30;99.90;;;;;;5030926;28;20041;-76
2024/02/11 07:51:44;;;;;;;15.68;9.93;;;8.30;99.90;;;;;;5032643;28;20086;-77
2024/02/11 07:54:12;;;;;;;15.23;10.07;;;8.30;99.90;;;;;;5031141;28;20033;-77
2024/02/11 07:56:39;;;;;;;16.45;10.15;;;8.30;99.90;;;;;;5032776;28;20589;-76
2024/02/11 07:59:05;;;;;;;12.30;7.90;;;8.30;99.90;;;;;;5029864;28;20033;-77
2024/02/11 08:01:34;;;;;;;14.25;8.60;;;8.20;99.90;;;;;;5029545;28;20095;-77
2024/02/11 08:04:00;;;;;;;17.95;12.18;;;8.30;99.90;;;;;;5029629;28;20507;-77
2024/02/11 08:06:26;;;;;;;71.05;17.10;;;8.40;99.90;;;;;;5031304;28;20037;-76
2024/02/11 08:08:52;;;;;;;90.40;15.55;;;8.40;99.90;;;;;;5032178;28;20037;-76
2024/02/11 08:11:18;;;;;;;16.65;10.75;;;8.20;99.90;;;;;;5034025;28;20024;-76
2024/02/11 08:13:43;;;;;;;21.20;12.43;;;8.30;99.90;;;;;;5032871;28;20028;-76
2024/02/11 08:16:11;;;;;;;20.67;11.27;;;8.30;99.90;;;;;;5035130;28;20041;-76
2024/02/11 08:18:38;;;;;;;51.97;14.65;;;8.30;99.90;;;;;;5031363;28;20029;-76
2024/02/11 08:21:09;;;;;;;17.95;11.75;;;8.30;99.90;;;;;;5033052;28;20071;-77
2024/02/11 08:23:34;;;;;;;28.80;12.25;;;8.40;99.90;;;;;;5033815;28;20037;-77
2024/02/11 08:26:01;;;;;;;17.27;9.90;;;8.40;99.90;;;;;;5031343;28;20036;-77
2024/02/11 08:28:27;;;;;;;16.65;9.90;;;8.30;99.90;;;;;;5032506;28;20033;-78
2024/02/11 08:30:53;;;;;;;14.18;9.75;;;8.30;99.90;;;;;;5034385;28;20774;-77
2024/02/11 08:33:20;;;;;;;15.52;9.57;;;8.40;99.90;;;;;;5032783;28;20025;-77
2024/02/11 08:35:47;;;;;;;16.42;10.73;;;8.50;99.90;;;;;;5034092;28;20041;-77
2024/02/11 08:38:14;;;;;;;16.77;10.73;;;8.60;99.90;;;;;;5035340;28;20037;-77
2024/02/11 08:40:40;;;;;;;18.15;12.65;;;8.70;99.90;;;;;;5033841;28;20478;-76
2024/02/11 08:43:05;;;;;;;16.95;10.50;;;8.70;99.90;;;;;;5035235;28;20029;-78
2024/02/11 08:45:31;;;;;;;17.65;11.63;;;8.80;99.90;;;;;;5033114;28;20340;-78
2024/02/11 08:47:57;;;;;;;17.65;11.15;;;8.80;99.90;;;;;;5034056;28;20097;-77
2024/02/11 08:50:25;;;;;;;15.52;11.57;;;8.80;99.90;;;;;;5035256;28;20044;-77
2024/02/11 08:52:50;;;;;;;17.60;11.40;;;8.80;99.90;;;;;;5034820;28;20089;-75
2024/02/11 08:55:17;;;;;;;15.32;10.05;;;8.90;99.90;;;;;;5033101;28;20056;-75
2024/02/11 08:57:47;;;;;;;15.60;9.65;;;8.80;99.90;;;;;;5034435;28;20044;-74
2024/02/11 09:00:18;;;;;;;14.63;9.25;;;8.80;99.90;;;;;;5032563;28;20028;-75
2024/02/11 09:02:44;;;;;;;12.93;8.95;;;8.80;99.90;;;;;;5033179;28;20037;-74
2024/02/11 09:05:09;;;;;;;12.88;8.55;;;8.90;99.90;;;;;;5030844;28;20111;-75
2024/02/11 09:07:38;;;;;;;12.85;7.95;;;8.80;99.90;;;;;;5030355;28;20037;-75
2024/02/11 09:10:05;;;;;;;13.73;7.65;;;8.80;99.90;;;;;;5029756;28;20047;-76
2024/02/11 09:12:31;;;;;;;12.70;7.97;;;9.00;99.90;;;;;;5027259;28;20037;-74
2024/02/11 09:14:56;;;;;;;13.52;8.45;;;9.00;99.90;;;;;;5029542;28;20712;-75
2024/02/11 09:17:22;;;;;;;12.98;7.72;;;9.00;99.90;;;;;;5028934;28;20029;-74
2024/02/11 09:19:50;;;;;;;14.40;8.70;;;9.10;99.90;;;;;;5028522;28;20036;-74
2024/02/11 09:22:15;;;;;;;14.77;9.05;;;9.20;99.90;;;;;;5029203;28;21087;-74
2024/02/11 09:24:41;;;;;;;14.93;9.55;;;9.30;99.90;;;;;;5029616;28;20037;-75
2024/02/11 09:27:10;;;;;;;13.98;9.98;;;9.30;99.90;;;;;;5031911;28;20558;-75
2024/02/11 09:29:36;;;;;;;12.52;8.23;;;9.20;99.90;;;;;;5034658;28;20052;-74
2024/02/11 09:32:03;;;;;;;15.75;8.80;;;9.10;99.90;;;;;;5033789;28;20065;-75
2024/02/11 09:34:29;;;;;;;16.17;9.13;;;9.00;99.90;;;;;;5034482;28;20588;-75
2024/02/11 09:36:55;;;;;;;16.92;9.32;;;9.10;99.90;;;;;;5033380;28;20409;-75
2024/02/11 09:39:20;;;;;;;16.58;10.00;;;9.10;99.90;;;;;;5031641;28;20028;-75
2024/02/11 09:41:47;;;;;;;16.13;10.57;;;9.10;99.90;;;;;;5032392;28;20044;-75
2024/02/11 09:44:22;;;;;;;13.23;9.35;;;9.10;99.90;;;;;;5032660;28;20032;-75
2024/02/11 09:46:50;;;;;;;13.85;9.20;;;9.00;99.90;;;;;;5037102;28;20033;-75
2024/02/11 09:49:21;;;;;;;15.98;10.60;;;9.10;99.90;;;;;;5036408;28;20033;-75
2024/02/11 09:51:48;;;;;;;14.73;10.02;;;9.20;99.90;;;;;;5037067;28;20199;-75
2024/02/11 09:54:15;;;;;;;12.45;8.20;;;9.20;99.90;;;;;;5036650;28;20033;-75
2024/02/11 09:56:42;;;;;;;13.63;8.60;;;9.10;99.90;;;;;;5033211;28;20101;-76
2024/02/11 09:59:09;;;;;;;13.73;9.20;;;9.10;99.90;;;;;;5029837;28;20028;-77
2024/02/11 10:01:41;;;;;;;13.35;8.20;;;9.10;99.90;;;;;;5034434;28;20128;-76
2024/02/11 10:04:07;;;;;;;11.43;8.02;;;9.20;99.90;;;;;;5034106;28;20028;-75
2024/02/11 10:06:42;;;;;;;11.25;7.82;;;9.30;99.90;;;;;;5029917;28;20628;-75
2024/02/11 10:09:10;;;;;;;12.70;8.32;;;9.40;99.90;;;;;;5030137;28;20040;-75
2024/02/11 10:11:38;;;;;;;10.38;7.30;;;9.30;99.90;;;;;;5030816;28;20493;-75
2024/02/11 10:14:08;;;;;;;12.05;8.73;;;9.40;99.90;;;;;;5033367;28;20044;-76
2024/02/11 10:16:35;;;;;;;9.30;6.45;;;9.40;99.90;;;;;;5034146;28;20033;-75
2024/02/11 10:19:01;;;;;;;8.68;5.90;;;9.60;99.90;;;;;;5033254;28;20029;-75
2024/02/11 10:21:27;;;;;;;8.77;5.63;;;9.70;99.90;;;;;;5036310;28;20098;-75
2024/02/11 10:23:54;;;;;;;8.55;5.43;;;9.90;99.90;;;;;;5031723;28;20013;-74
2024/02/11 10:26:20;;;;;;;9.75;7.45;;;9.90;99.90;;;;;;5034474;28;20730;-75
2024/02/11 10:28:46;;;;;;;10.82;6.78;;;9.80;99.90;;;;;;5034291;28;20032;-75
2024/02/11 10:31:12;;;;;;;12.07;8.50;;;9.70;99.90;;;;;;5035957;28;20044;-75
2024/02/11 10:33:39;;;;;;;11.23;7.45;;;9.70;99.90;;;;;;5036419;28;20359;-75
2024/02/11 10:36:06;;;;;;;10.85;5.90;;;9.70;99.90;;;;;;5036980;28;20487;-75
2024/02/11 10:38:33;;;;;;;8.32;6.05;;;9.90;99.90;;;;;;5034632;28;20033;-76
2024/02/11 10:41:01;;;;;;;7.78;4.85;;;9.90;99.90;;;;;;5028904;28;20032;-75
2024/02/11 10:43:36;;;;;;;7.13;4.72;;;10.00;99.90;;;;;;5034194;28;20055;-75
2024/02/11 10:46:02;;;;;;;8.98;6.65;;;10.20;99.90;;;;;;5036092;28;20052;-75
2024/02/11 10:48:28;;;;;;;10.35;6.03;;;10.10;99.90;;;;;;5035409;28;20129;-77
2024/02/11 10:51:17;;;;;;;7.85;5.32;;;10.20;99.90;;;;;;5035752;28;20029;-75
2024/02/11 10:53:49;;;;;;;11.15;7.13;;;10.30;99.90;;;;;;5035655;28;21184;-75
2024/02/11 10:56:17;;;;;;;9.75;6.70;;;10.20;99.90;;;;;;5033068;28;20053;-76
2024/02/11 10:58:49;;;;;;;10.68;7.25;;;10.20;99.90;;;;;;5036346;28;20021;-76
2024/02/11 11:01:18;;;;;;;8.75;6.20;;;10.30;99.90;;;;;;5036083;28;20037;-75
2024/02/11 11:03:45;;;;;;;9.07;7.03;;;10.10;99.90;;;;;;5033566;28;20029;-75
2024/02/11 11:06:12;;;;;;;10.13;7.55;;;10.00;99.90;;;;;;5032709;28;20681;-75
2024/02/11 11:08:42;;;;;;;9.90;6.15;;;10.00;99.90;;;;;;5033300;28;21064;-75
2024/02/11 11:11:08;;;;;;;7.57;5.75;;;10.20;99.90;;;;;;5033355;28;20632;-76
2024/02/11 11:13:34;;;;;;;7.97;5.65;;;10.20;99.90;;;;;;5032004;28;20034;-75
2024/02/11 11:16:04;;;;;;;8.25;5.70;;;10.50;99.90;;;;;;5035411;28;20041;-75
2024/02/11 11:18:37;;;;;;;8.52;5.70;;;10.30;99.90;;;;;;5035525;28;20036;-76
2024/02/11 11:21:04;;;;;;;9.77;5.85;;;10.20;99.90;;;;;;5034853;28;20039;-76
2024/02/11 11:23:30;;;;;;;9.27;5.57;;;10.20;99.90;;;;;;5035655;28;20390;-75
2024/02/11 11:25:56;;;;;;;8.68;5.55;;;10.20;99.90;;;;;;5035967;28;20033;-75
2024/02/11 11:28:29;;;;;;;9.23;7.07;;;10.20;99.90;;;;;;5034078;28;20067;-76
2024/02/11 11:30:55;;;;;;;9.02;6.13;;;10.10;99.90;;;;;;5034807;28;20555;-75
2024/02/11 11:33:22;;;;;;;8.18;5.95;;;10.10;99.90;;;;;;5035879;28;20036;-75
2024/02/11 11:35:58;;;;;;;8.57;6.28;;;10.10;99.90;;;;;;5036125;28;20494;-75
2024/02/11 11:38:26;;;;;;;9.57;5.93;;;10.00;99.90;;;;;;5035969;28;20672;-75
2024/02/11 11:40:53;;;;;;;8.98;5.90;;;9.90;99.90;;;;;;5039444;28;20102;-76
2024/02/11 11:43:24;;;;;;;9.43;5.55;;;10.00;99.90;;;;;;5038237;28;20036;-78
2024/02/11 11:46:03;;;;;;;8.82;6.68;;;9.90;99.90;;;;;;5046006;28;20047;-77
2024/02/11 11:48:31;;;;;;;8.07;6.03;;;9.90;99.90;;;;;;5036533;28;20048;-79
2024/02/11 11:50:59;;;;;;;7.88;5.18;;;9.80;99.90;;;;;;5037555;28;20033;-79
2024/02/11 11:53:25;;;;;;;7.63;4.43;;;9.70;99.90;;;;;;5036554;28;20151;-77
2024/02/11 11:55:52;;;;;;;7.50;5.05;;;9.70;99.90;;;;;;5035797;28;20048;-78
2024/02/11 11:58:26;;;;;;;6.43;4.18;;;9.70;99.90;;;;;;5035929;28;20044;-77
2024/02/11 12:01:00;;;;;;;7.10;4.22;;;9.70;99.90;;;;;;5036050;28;20029;-78
2024/02/11 12:03:27;;;;;;;7.50;4.60;;;9.70;99.90;;;;;;5039044;28;20067;-78
2024/02/11 12:05:54;;;;;;;6.40;4.63;;;9.70;99.90;;;;;;5037297;28;20057;-77
2024/02/11 12:08:20;;;;;;;6.63;3.85;;;9.70;99.90;;;;;;5036885;28;20033;-78
2024/02/11 12:11:00;;;;;;;9.55;3.58;;;9.70;99.90;;;;;;5036113;28;20055;-80
2024/02/11 12:13:30;;;;;;;4.65;3.53;;;9.60;99.90;;;;;;5036436;28;20364;-80
2024/02/11 12:15:56;;;;;;;5.00;2.70;;;9.50;99.90;;;;;;5036969;28;20843;-77
2024/02/11 12:18:22;;;;;;;5.00;3.05;;;9.40;99.90;;;;;;5036159;28;20032;-80
2024/02/11 12:20:48;;;;;;;4.93;2.70;;;9.30;99.90;;;;;;5035253;28;20029;-79
2024/02/11 12:23:15;;;;;;;5.35;1.90;;;9.50;99.90;;;;;;5036021;28;20041;-80
2024/02/11 12:25:41;;;;;;;3.60;2.00;;;9.50;99.90;;;;;;5037287;28;20044;-80
2024/02/11 12:28:09;;;;;;;3.92;2.28;;;9.50;99.90;;;;;;5036932;28;20032;-80
2024/02/11 12:30:38;;;;;;;3.17;1.65;;;9.70;99.90;;;;;;5037316;28;20040;-81
2024/02/11 12:33:06;;;;;;;3.90;2.15;;;9.50;99.90;;;;;;5036469;28;20888;-81
2024/02/11 12:35:35;;;;;;;3.63;1.95;;;9.50;99.90;;;;;;5036156;28;20592;-81
2024/02/11 12:38:02;;;;;;;3.90;2.13;;;9.50;99.90;;;;;;5036345;28;20025;-80
2024/02/11 12:40:29;;;;;;;3.08;1.65;;;9.60;99.90;;;;;;5036197;28;20071;-80
2024/02/11 12:43:03;;;;;;;3.03;1.50;;;9.50;99.90;;;;;;5035088;28;20114;-83
2024/02/11 12:45:29;;;;;;;3.28;1.40;;;9.60;99.90;;;;;;5036516;28;20149;-79
2024/02/11 12:47:58;;;;;;;2.40;1.30;;;9.70;99.90;;;;;;5034459;28;21444;-79
2024/02/11 12:50:24;;;;;;;1.67;1.00;;;9.70;99.90;;;;;;5039157;28;20061;-80